Time;durP1;ratioP1;P1;durP2;ratioP2;P2;SDS_P1;SDS_P2;PMS_P1;PMS_P2;Temp;Humidity;BMP_temperature;BMP_pressure;BME280_temperature;BME280_humidity;BME280_pressure;Samples;Min_cycle;Max_cycle;Signal;HPM_P1;HPM_P2
2022/10/29 00:00:50;;;;;;;;;;;;;;;21.46;56.49;101779.97;5109873;27;19931;-38
2022/10/29 00:03:16;;;;;;;;;;;;;;;21.45;56.38;101778.31;5130118;27;20019;-38
2022/10/29 00:05:41;;;;;;;;;;;;;;;21.45;56.43;101776.38;5130859;27;19989;-38
2022/10/29 00:08:07;;;;;;;;;;;;;;;21.44;56.42;101776.66;5129894;27;19939;-37
2022/10/29 00:10:32;;;;;;;;;;;;;;;21.45;56.47;101781.91;5131145;27;19934;-38
2022/10/29 00:13:00;;;;;;;;;;;;;;;21.44;56.44;101783.03;5134410;27;19924;-38
2022/10/29 00:15:25;;;;;;;;;;;;;;;21.44;56.43;101791.34;5126036;27;20399;-38
2022/10/29 00:17:51;;;;;;;;;;;;;;;21.44;56.43;101785.78;5135736;27;19930;-38
2022/10/29 00:20:19;;;;;;;;;;;;;;;21.45;56.34;101793.00;5131546;27;20279;-38
2022/10/29 00:22:45;;;;;;;;;;;;;;;21.45;56.45;101794.94;5138217;27;19972;-38
2022/10/29 00:25:11;;;;;;;;;;;;;;;21.44;56.43;101791.34;5139235;27;20434;-38
2022/10/29 00:27:36;;;;;;;;;;;;;;;21.45;56.43;101786.63;5136957;27;20434;-38
2022/10/29 00:30:02;;;;;;;;;;;;;;;21.44;56.47;101783.03;5135616;27;19932;-38
2022/10/29 00:32:28;;;;;;;;;;;;;;;21.44;56.41;101785.78;5137470;27;20425;-38
2022/10/29 00:34:53;;;;;;;;;;;;;;;21.46;56.50;101785.50;5133102;27;19924;-37
2022/10/29 00:37:19;;;;;;;;;;;;;;;21.45;56.45;101781.06;5134111;27;19968;-37
2022/10/29 00:39:44;;;;;;;;;;;;;;;21.44;56.49;101787.72;5133718;27;19924;-39
2022/10/29 00:42:12;;;;;;;;;;;;;;;21.44;56.51;101785.78;5134253;27;20464;-38
2022/10/29 00:44:38;;;;;;;;;;;;;;;21.45;56.46;101789.38;5132760;27;20435;-38
2022/10/29 00:47:21;;;;;;;;;;;;;;;21.44;56.39;101780.25;5132290;27;19969;-38
2022/10/29 00:49:47;;;;;;;;;;;;;;;21.45;56.37;101772.75;5116165;28;20330;-38
2022/10/29 00:52:13;;;;;;;;;;;;;;;21.43;56.43;101778.59;5132458;27;19989;-38
2022/10/29 00:54:39;;;;;;;;;;;;;;;21.44;56.43;101776.66;5135428;27;20018;-38
2022/10/29 00:57:07;;;;;;;;;;;;;;;21.44;56.40;101769.16;5134721;27;19923;-38
2022/10/29 00:59:33;;;;;;;;;;;;;;;21.44;56.25;101760.84;5134599;27;19966;-38
2022/10/29 01:01:58;;;;;;;;;;;;;;;21.44;56.47;101760.03;5134742;27;19923;-37
2022/10/29 01:04:24;;;;;;;;;;;;;;;21.44;56.34;101760.03;5132557;27;20363;-38
2022/10/29 01:06:50;;;;;;;;;;;;;;;21.44;56.37;101766.41;5136961;27;19935;-38
2022/10/29 01:09:15;;;;;;;;;;;;;;;21.44;56.41;101768.34;5132932;27;19968;-38
2022/10/29 01:11:55;;;;;;;;;;;;;;;21.44;56.47;101762.78;5134872;27;19923;-38
2022/10/29 01:14:40;;;;;;;;;;;;;;;21.44;56.47;101769.16;5134373;27;20018;-38
2022/10/29 01:17:26;;;;;;;;;;;;;;;21.43;56.51;101763.91;5112414;27;19997;-37
2022/10/29 01:20:11;;;;;;;;;;;;;;;21.43;56.41;101761.97;5120028;27;20329;-38
2022/10/29 01:22:38;;;;;;;;;;;;;;;21.43;56.35;101764.75;5120843;27;19967;-38
2022/10/29 01:25:08;;;;;;;;;;;;;;;21.43;56.42;101756.44;5133078;27;19923;-38
2022/10/29 01:27:40;;;;;;;;;;;;;;;21.43;56.50;101759.19;5134585;27;19927;-38
2022/10/29 01:30:14;;;;;;;;;;;;;;;21.43;56.34;101750.88;5136818;27;19988;-38
2022/10/29 01:32:50;;;;;;;;;;;;;;;21.43;56.46;101755.59;5136867;27;19931;-38
2022/10/29 01:35:35;;;;;;;;;;;;;;;21.43;56.48;101756.44;5136286;27;20006;-38
2022/10/29 01:38:04;;;;;;;;;;;;;;;21.44;56.56;101754.47;5120896;27;20013;-38
2022/10/29 01:40:47;;;;;;;;;;;;;;;21.42;56.39;101743.69;5132725;27;19949;-37
2022/10/29 01:43:14;;;;;;;;;;;;;;;21.42;56.63;101740.91;5129934;27;20119;-38
2022/10/29 01:45:42;;;;;;;;;;;;;;;21.43;56.37;101745.34;5125438;27;19966;-38
2022/10/29 01:48:08;;;;;;;;;;;;;;;21.43;56.10;101745.34;5134107;27;20017;-38
2022/10/29 01:50:34;;;;;;;;;;;;;;;21.42;56.44;101746.47;5136750;27;20017;-38
2022/10/29 01:52:59;;;;;;;;;;;;;;;21.44;56.27;101754.47;5133661;27;20007;-38
2022/10/29 01:55:29;;;;;;;;;;;;;;;21.43;56.40;101744.50;5129167;27;19923;-38
2022/10/29 01:57:54;;;;;;;;;;;;;;;21.42;56.46;101743.69;5111779;27;20380;-38
2022/10/29 02:00:21;;;;;;;;;;;;;;;21.43;56.42;101739.81;5133727;27;19923;-38
2022/10/29 02:03:06;;;;;;;;;;;;;;;21.43;56.46;101738.97;5129797;27;19931;-37
2022/10/29 02:05:52;;;;;;;;;;;;;;;21.42;56.36;101727.06;5119687;27;19984;-38
2022/10/29 02:08:37;;;;;;;;;;;;;;;21.43;56.44;101725.13;5112673;27;19967;-38
2022/10/29 02:11:07;;;;;;;;;;;;;;;21.43;56.77;101730.66;5117640;27;20145;-38
2022/10/29 02:13:33;;;;;;;;;;;;;;;21.42;56.45;101717.91;5132099;27;20018;-38
2022/10/29 02:15:59;;;;;;;;;;;;;;;21.42;56.29;101727.06;5129091;27;19989;-39
2022/10/29 02:18:24;;;;;;;;;;;;;;;21.42;56.50;101724.28;5113982;27;19923;-38
2022/10/29 02:20:50;;;;;;;;;;;;;;;21.43;56.45;101722.34;5130586;27;19927;-37
2022/10/29 02:23:16;;;;;;;;;;;;;;;21.42;56.50;101715.97;5137017;27;19923;-38
2022/10/29 02:25:42;;;;;;;;;;;;;;;21.42;56.42;101709.59;5132410;27;19930;-38
2022/10/29 02:28:07;;;;;;;;;;;;;;;21.42;56.52;101709.59;5119725;27;19983;-38
2022/10/29 02:30:33;;;;;;;;;;;;;;;21.42;56.42;101709.59;5132563;27;20282;-38
2022/10/29 02:32:58;;;;;;;;;;;;;;;21.42;56.41;101712.38;5129241;27;19932;-38
2022/10/29 02:35:24;;;;;;;;;;;;;;;21.41;56.37;101708.75;5129419;27;20405;-38
2022/10/29 02:37:50;;;;;;;;;;;;;;;21.42;56.41;101709.59;5128626;27;19930;-38
2022/10/29 02:40:16;;;;;;;;;;;;;;;21.42;56.48;101709.59;5130757;27;20032;-38
2022/10/29 02:42:41;;;;;;;;;;;;;;;21.42;56.44;101699.34;5135451;27;19968;-38
2022/10/29 02:45:07;;;;;;;;;;;;;;;21.42;56.37;101698.53;5133831;27;19930;-39
2022/10/29 02:47:32;;;;;;;;;;;;;;;21.41;56.50;101697.66;5131686;27;19923;-38
2022/10/29 02:49:58;;;;;;;;;;;;;;;21.42;56.37;101692.97;5129805;27;19928;-38
2022/10/29 02:52:23;;;;;;;;;;;;;;;21.41;56.45;101694.88;5137574;27;19930;-38
2022/10/29 02:54:49;;;;;;;;;;;;;;;21.41;56.45;101696.84;5111732;27;20059;-37
2022/10/29 02:57:14;;;;;;;;;;;;;;;21.42;56.40;101698.53;5136167;27;19923;-38
2022/10/29 02:59:40;;;;;;;;;;;;;;;21.41;56.41;101707.91;5130218;27;19949;-38
2022/10/29 03:02:06;;;;;;;;;;;;;;;21.41;56.45;101711.50;5129075;27;19928;-38
2022/10/29 03:04:31;;;;;;;;;;;;;;;21.41;56.37;101702.38;5134946;27;19931;-38
2022/10/29 03:06:58;;;;;;;;;;;;;;;21.41;56.33;101694.88;5116350;27;19937;-38
2022/10/29 03:09:23;;;;;;;;;;;;;;;21.41;56.37;101689.34;5114258;27;19970;-38
2022/10/29 03:11:49;;;;;;;;;;;;;;;21.41;56.36;101700.44;5132236;27;19923;-38
2022/10/29 03:14:14;;;;;;;;;;;;;;;21.41;56.63;101692.13;5133349;27;19931;-38
2022/10/29 03:16:40;;;;;;;;;;;;;;;21.41;56.42;101691.28;5133813;27;19942;-38
2022/10/29 03:19:06;;;;;;;;;;;;;;;21.42;56.32;101690.22;5133146;27;19927;-39
2022/10/29 03:21:31;;;;;;;;;;;;;;;21.41;56.37;101683.81;5128673;27;20432;-38
2022/10/29 03:23:57;;;;;;;;;;;;;;;21.41;56.29;101683.81;5132102;27;20139;-37
2022/10/29 03:26:22;;;;;;;;;;;;;;;21.40;56.36;101671.06;5131461;27;19923;-38
2022/10/29 03:28:48;;;;;;;;;;;;;;;21.41;56.37;101678.25;5131192;27;20007;-38
2022/10/29 03:31:13;;;;;;;;;;;;;;;21.40;56.42;101671.06;5133036;27;19924;-38
2022/10/29 03:33:39;;;;;;;;;;;;;;;21.41;56.44;101660.81;5130816;27;19935;-38
2022/10/29 03:36:05;;;;;;;;;;;;;;;21.41;56.44;101664.41;5126208;27;19938;-38
2022/10/29 03:38:31;;;;;;;;;;;;;;;21.40;56.41;101665.53;5133717;27;19923;-38
2022/10/29 03:40:56;;;;;;;;;;;;;;;21.41;56.45;101666.34;5134484;27;20060;-38
2022/10/29 03:43:22;;;;;;;;;;;;;;;21.41;56.37;101672.72;5117790;27;19997;-38
2022/10/29 03:45:51;;;;;;;;;;;;;;;21.41;56.36;101664.41;5111936;27;19938;-38
2022/10/29 03:48:16;;;;;;;;;;;;;;;21.40;56.49;101648.91;5132394;27;19970;-38
2022/10/29 03:50:42;;;;;;;;;;;;;;;21.41;56.36;101644.19;5131326;27;19924;-38
2022/10/29 03:53:07;;;;;;;;;;;;;;;21.41;56.35;101655.28;5131884;27;20348;-38
2022/10/29 03:55:33;;;;;;;;;;;;;;;21.41;56.38;101652.50;5133263;27;20213;-38
2022/10/29 03:57:59;;;;;;;;;;;;;;;21.40;56.36;101654.44;5133037;27;19923;-38
2022/10/29 04:00:24;;;;;;;;;;;;;;;21.40;56.31;101650.84;5135695;27;19923;-38
2022/10/29 04:02:50;;;;;;;;;;;;;;;21.40;56.41;101648.91;5140083;27;19930;-38
2022/10/29 04:05:16;;;;;;;;;;;;;;;21.40;56.42;101654.44;5132481;27;19930;-38
2022/10/29 04:07:41;;;;;;;;;;;;;;;21.41;56.44;101658.03;5130459;27;19923;-38
2022/10/29 04:10:07;;;;;;;;;;;;;;;21.41;56.34;101663.59;5131234;27;19923;-39
2022/10/29 04:12:32;;;;;;;;;;;;;;;21.40;56.48;101681.31;5127809;27;20363;-38
2022/10/29 04:14:58;;;;;;;;;;;;;;;21.40;56.41;101673.84;5134858;27;19938;-38
2022/10/29 04:17:23;;;;;;;;;;;;;;;21.40;56.44;101668.28;5131178;27;20393;-38
2022/10/29 04:19:49;;;;;;;;;;;;;;;21.40;56.38;101654.44;5133636;27;19960;-38
2022/10/29 04:22:15;;;;;;;;;;;;;;;21.39;56.30;101655.56;5136907;27;20301;-38
2022/10/29 04:25:00;;;;;;;;;;;;;;;21.40;56.33;101650.84;5114466;27;20402;-38
2022/10/29 04:27:46;;;;;;;;;;;;;;;21.40;56.36;101643.34;5116400;27;19927;-38
2022/10/29 04:30:31;;;;;;;;;;;;;;;21.40;56.36;101637.81;5120938;27;19934;-38
2022/10/29 04:32:57;;;;;;;;;;;;;;;21.40;56.37;101640.59;5134631;27;19931;-38
2022/10/29 04:35:24;;;;;;;;;;;;;;;21.40;56.39;101634.22;5128827;27;19924;-38
2022/10/29 04:37:50;;;;;;;;;;;;;;;21.40;56.32;101635.03;5110322;28;20039;-38
2022/10/29 04:40:15;;;;;;;;;;;;;;;21.40;56.29;101631.44;5130441;27;19931;-37
2022/10/29 04:42:41;;;;;;;;;;;;;;;21.40;56.41;101634.22;5113978;27;19938;-38
2022/10/29 04:45:07;;;;;;;;;;;;;;;21.39;56.34;101614.00;5127123;27;19923;-39
2022/10/29 04:47:32;;;;;;;;;;;;;;;21.40;56.29;101612.88;5110635;27;19924;-38
2022/10/29 04:49:58;;;;;;;;;;;;;;;21.40;56.36;101599.03;5112643;27;19934;-38
2022/10/29 04:52:23;;;;;;;;;;;;;;;21.40;56.41;101592.66;5130018;27;20001;-38
2022/10/29 04:54:49;;;;;;;;;;;;;;;21.40;56.43;101589.88;5129535;27;19942;-38
2022/10/29 04:57:14;;;;;;;;;;;;;;;21.39;56.51;101589.06;5133227;27;19931;-38
2022/10/29 04:59:40;;;;;;;;;;;;;;;21.40;56.25;101595.44;5116709;28;19931;-38
2022/10/29 05:02:06;;;;;;;;;;;;;;;21.38;56.28;101615.13;5134183;27;19980;-38
2022/10/29 05:04:31;;;;;;;;;;;;;;;21.40;56.18;101612.88;5133034;27;19931;-38
2022/10/29 05:06:57;;;;;;;;;;;;;;;21.39;56.36;101614.00;5136402;27;19983;-38
2022/10/29 05:09:22;;;;;;;;;;;;;;;21.39;56.46;101619.53;5134867;27;19946;-38
2022/10/29 05:11:48;;;;;;;;;;;;;;;21.40;56.33;101609.28;5136259;27;20410;-37
2022/10/29 05:14:13;;;;;;;;;;;;;;;21.39;56.34;101602.91;5138781;27;19923;-38
2022/10/29 05:16:39;;;;;;;;;;;;;;;21.39;56.35;101608.44;5133263;27;20139;-38
2022/10/29 05:19:05;;;;;;;;;;;;;;;21.39;56.36;101608.44;5130293;27;19930;-38
2022/10/29 05:21:30;;;;;;;;;;;;;;;21.40;56.36;101598.19;5133640;27;19970;-38
2022/10/29 05:23:56;;;;;;;;;;;;;;;21.39;56.27;101591.84;5137780;27;19976;-38
2022/10/29 05:26:22;;;;;;;;;;;;;;;21.39;56.35;101599.31;5135334;27;19931;-38
2022/10/29 05:28:48;;;;;;;;;;;;;;;21.38;56.32;101595.72;5139239;27;20285;-38
2022/10/29 05:31:13;;;;;;;;;;;;;;;21.39;56.45;101593.78;5133587;27;20442;-38
2022/10/29 05:33:39;;;;;;;;;;;;;;;21.40;56.51;101598.19;5130848;27;19931;-38
2022/10/29 05:36:05;;;;;;;;;;;;;;;21.40;56.15;101604.56;5133021;27;19954;-38
2022/10/29 05:38:31;;;;;;;;;;;;;;;21.39;56.45;101602.09;5134886;27;19923;-38
2022/10/29 05:40:57;;;;;;;;;;;;;;;21.39;56.35;101610.41;5140659;27;19922;-37
2022/10/29 05:43:22;;;;;;;;;;;;;;;21.39;56.30;101594.59;5131842;27;19967;-38
2022/10/29 05:45:48;;;;;;;;;;;;;;;21.39;56.34;101594.59;5128279;27;19927;-38
2022/10/29 05:48:13;;;;;;;;;;;;;;;21.40;56.36;101595.44;5135848;27;19932;-38
2022/10/29 05:50:39;;;;;;;;;;;;;;;21.39;56.30;101594.59;5135512;27;19923;-38
2022/10/29 05:53:05;;;;;;;;;;;;;;;21.40;56.35;101592.66;5129778;27;19946;-38
2022/10/29 05:55:31;;;;;;;;;;;;;;;21.39;56.35;101585.47;5136118;27;20282;-38
2022/10/29 05:57:57;;;;;;;;;;;;;;;21.39;56.34;101583.53;5117402;28;20402;-38
2022/10/29 06:00:23;;;;;;;;;;;;;;;21.40;56.46;101587.13;5111730;27;20014;-38
2022/10/29 06:02:48;;;;;;;;;;;;;;;21.39;56.35;101580.75;5114511;27;20081;-38
2022/10/29 06:05:14;;;;;;;;;;;;;;;21.39;56.36;101577.97;5129665;27;19923;-38
2022/10/29 06:07:40;;;;;;;;;;;;;;;21.39;56.31;101574.38;5135582;27;20020;-38
2022/10/29 06:10:08;;;;;;;;;;;;;;;21.39;56.27;101583.53;5132107;27;19971;-38
2022/10/29 06:12:34;;;;;;;;;;;;;;;21.40;56.38;101587.13;5134459;27;20063;-37
2022/10/29 06:15:00;;;;;;;;;;;;;;;21.39;56.28;101579.91;5130804;27;20283;-38
2022/10/29 06:17:25;;;;;;;;;;;;;;;21.39;56.32;101574.38;5131155;27;20407;-38
2022/10/29 06:19:51;;;;;;;;;;;;;;;21.39;56.35;101577.16;5135859;27;19923;-38
2022/10/29 06:22:16;;;;;;;;;;;;;;;21.39;56.37;101577.16;5134618;27;20071;-38
2022/10/29 06:24:42;;;;;;;;;;;;;;;21.39;56.32;101558.59;5135721;27;19954;-38
2022/10/29 06:27:08;;;;;;;;;;;;;;;21.39;56.31;101566.06;5132796;27;19984;-38
2022/10/29 06:29:33;;;;;;;;;;;;;;;21.38;56.32;101562.47;5138988;27;20351;-38
2022/10/29 06:31:59;;;;;;;;;;;;;;;21.39;56.31;101574.38;5134353;27;19931;-38
2022/10/29 06:34:24;;;;;;;;;;;;;;;21.38;56.28;101570.78;5118442;27;19970;-38
2022/10/29 06:36:50;;;;;;;;;;;;;;;21.39;56.34;101566.06;5133498;27;20282;-38
2022/10/29 06:39:15;;;;;;;;;;;;;;;21.39;56.42;101577.16;5130726;27;19930;-38
2022/10/29 06:41:41;;;;;;;;;;;;;;;21.39;56.40;101575.22;5132443;27;19932;-38
2022/10/29 06:44:06;;;;;;;;;;;;;;;21.39;56.39;101566.91;5137596;27;20004;-38
2022/10/29 06:46:33;;;;;;;;;;;;;;;21.38;56.31;101576.31;5132220;27;19939;-38
2022/10/29 06:48:59;;;;;;;;;;;;;;;21.38;56.25;101579.09;5136681;27;20166;-38
2022/10/29 06:54:47;;;;;;;;;;;;;;;21.38;56.28;101581.88;5130295;27;19942;-38
2022/10/29 06:57:12;;;;;;;;;;;;;;;21.38;56.36;101579.09;5131971;27;20302;-38
2022/10/29 06:59:38;;;;;;;;;;;;;;;21.38;56.27;101579.09;5134588;27;19943;-38
2022/10/29 07:02:03;;;;;;;;;;;;;;;21.38;56.29;101584.63;5133079;27;19942;-38
2022/10/29 07:04:29;;;;;;;;;;;;;;;21.39;56.40;101582.69;5127141;27;19931;-38
2022/10/29 07:06:54;;;;;;;;;;;;;;;21.38;56.35;101589.34;5132941;27;19924;-38
2022/10/29 07:09:20;;;;;;;;;;;;;;;21.38;56.30;101581.88;5130566;27;20305;-38
2022/10/29 07:11:46;;;;;;;;;;;;;;;21.38;56.38;101581.03;5130067;27;19954;-38
2022/10/29 07:14:12;;;;;;;;;;;;;;;21.38;56.24;101586.56;5130135;27;20404;-38
2022/10/29 07:16:37;;;;;;;;;;;;;;;21.38;56.29;101576.31;5132484;27;19927;-38
2022/10/29 07:19:03;;;;;;;;;;;;;;;21.37;56.27;101585.72;5127779;27;19923;-38
2022/10/29 07:21:28;;;;;;;;;;;;;;;21.37;56.24;101582.94;5115037;27;19934;-38
2022/10/29 07:23:54;;;;;;;;;;;;;;;21.38;56.36;101583.81;5131848;27;20495;-38
2022/10/29 07:26:20;;;;;;;;;;;;;;;21.38;56.30;101589.34;5132992;27;19930;-38
2022/10/29 07:28:45;;;;;;;;;;;;;;;21.38;56.32;101592.94;5136753;27;19938;-39
2022/10/29 07:31:11;;;;;;;;;;;;;;;21.38;56.07;101605.97;5136588;27;19947;-38
2022/10/29 07:33:36;;;;;;;;;;;;;;;21.37;56.29;101587.66;5135955;27;19923;-37
2022/10/29 07:36:02;;;;;;;;;;;;;;;21.37;56.24;101599.56;5128850;27;19934;-38
2022/10/29 07:38:27;;;;;;;;;;;;;;;21.37;56.34;101598.75;5135010;27;19931;-38
2022/10/29 07:40:53;;;;;;;;;;;;;;;21.38;56.25;101595.72;5131170;27;19931;-38
2022/10/29 07:43:19;;;;;;;;;;;;;;;21.37;56.29;101595.97;5109542;27;20323;-38
2022/10/29 07:45:45;;;;;;;;;;;;;;;21.37;56.37;101591.25;5110919;28;19980;-38
2022/10/29 07:48:11;;;;;;;;;;;;;;;21.37;56.31;101585.72;5130968;27;20065;-37
2022/10/29 07:50:36;;;;;;;;;;;;;;;21.37;56.34;101599.56;5132019;27;19923;-38
2022/10/29 07:53:02;;;;;;;;;;;;;;;21.37;56.40;101587.66;5127226;27;19974;-38
2022/10/29 07:55:28;;;;;;;;;;;;;;;21.38;56.37;101594.88;5128175;27;19942;-38
2022/10/29 07:57:57;;;;;;;;;;;;;;;21.37;56.45;101591.25;5110258;27;19924;-38
2022/10/29 08:00:24;;;;;;;;;;;;;;;21.37;56.31;101582.94;5113931;27;20414;-38
2022/10/29 08:02:51;;;;;;;;;;;;;;;21.36;56.28;101586.84;5135750;27;20009;-37
2022/10/29 08:05:17;;;;;;;;;;;;;;;21.37;56.32;101587.66;5109559;27;19971;-37
2022/10/29 08:07:42;;;;;;;;;;;;;;;21.37;56.31;101585.72;5127900;27;20412;-37
2022/10/29 08:10:08;;;;;;;;;;;;;;;21.37;56.38;101591.25;5130788;27;19942;-37
2022/10/29 08:12:33;;;;;;;;;;;;;;;21.38;56.28;101589.34;5129448;27;19931;-37
2022/10/29 08:14:59;;;;;;;;;;;;;;;21.37;56.30;101594.03;5126518;27;19934;-37
2022/10/29 08:17:27;;;;;;;;;;;;;;;21.36;56.32;101595.16;5129329;27;19931;-37
2022/10/29 08:19:52;;;;;;;;;;;;;;;21.37;56.34;101587.66;5132756;27;19971;-37
2022/10/29 08:22:18;;;;;;;;;;;;;;;21.37;56.28;101588.50;5132270;27;19930;-37
2022/10/29 08:24:43;;;;;;;;;;;;;;;21.38;56.33;101573.56;5133029;27;19927;-38
2022/10/29 08:27:09;;;;;;;;;;;;;;;21.37;56.33;101574.63;5131177;27;19935;-39
2022/10/29 08:29:34;;;;;;;;;;;;;;;21.37;56.21;101566.31;5130116;27;20341;-37
2022/10/29 08:32:00;;;;;;;;;;;;;;;21.37;56.22;101577.41;5133171;27;19926;-37
2022/10/29 08:34:25;;;;;;;;;;;;;;;21.38;56.40;101569.97;5128866;27;19931;-37
2022/10/29 08:36:51;;;;;;;;;;;;;;;21.37;56.47;101571.03;5135311;27;19931;-37
2022/10/29 08:39:16;;;;;;;;;;;;;;;21.37;56.37;101569.09;5133826;27;19930;-37
2022/10/29 08:44:39;;;;;;;;;;;;;;;21.37;56.29;101573.81;5165577;27;19934;-37
2022/10/29 08:47:07;;;;;;;;;;;;;;;21.36;56.26;101575.75;5149734;27;19969;-35
2022/10/29 08:49:53;;;;;;;;;;;;;;;21.36;56.33;101567.44;5164665;27;19926;-35
2022/10/29 08:52:22;;;;;;;;;;;;;;;21.36;56.33;101581.28;5149472;27;19991;-35
2022/10/29 08:54:55;;;;;;;;;;;;;;;21.36;56.38;101575.75;5161662;27;19967;-35
2022/10/29 08:57:21;;;;;;;;;;;;;;;21.36;56.32;101563.84;5167054;27;19966;-35
2022/10/29 08:59:57;;;;;;;;;;;;;;;21.36;56.38;101575.75;5166428;27;20385;-35
2022/10/29 09:02:22;;;;;;;;;;;;;;;21.36;56.31;101570.22;5163363;27;19927;-35
2022/10/29 09:04:48;;;;;;;;;;;;;;;21.36;56.28;101567.44;5163147;27;20579;-35
2022/10/29 09:07:34;;;;;;;;;;;;;;;21.37;56.26;101568.28;5167212;27;20354;-35
2022/10/29 09:10:10;;;;;;;;;;;;;;;21.37;56.31;101571.03;5146644;27;20028;-35
2022/10/29 09:12:46;;;;;;;;;;;;;;;21.37;56.32;101571.88;5147568;27;20342;-35
2022/10/29 09:15:16;;;;;;;;;;;;;;;21.36;55.86;101574.94;5161136;27;20026;-35
2022/10/29 09:18:02;;;;;;;;;;;;;;;21.37;56.29;101574.63;5151947;27;19980;-35
2022/10/29 09:20:29;;;;;;;;;;;;;;;21.37;56.24;101571.03;5143057;27;19962;-35
2022/10/29 09:22:59;;;;;;;;;;;;;;;21.36;56.16;101572.16;5153315;27;19987;-35
2022/10/29 09:25:32;;;;;;;;;;;;;;;21.36;56.22;101572.97;5162428;27;20017;-35
2022/10/29 09:28:17;;;;;;;;;;;;;;;21.37;56.23;101568.28;5159783;27;20787;-35
2022/10/29 09:31:03;;;;;;;;;;;;;;;21.37;56.35;101559.97;5144841;27;20031;-35
2022/10/29 09:33:28;;;;;;;;;;;;;;;21.37;56.24;101557.19;5138900;27;19946;-35
2022/10/29 09:35:55;;;;;;;;;;;;;;;21.36;56.27;101555.53;5152874;27;20283;-35
2022/10/29 09:38:23;;;;;;;;;;;;;;;21.36;56.30;101550.81;5157704;27;19970;-35
2022/10/29 09:40:48;;;;;;;;;;;;;;;21.37;56.32;101557.19;5135786;27;19970;-34
2022/10/29 09:43:22;;;;;;;;;;;;;;;21.37;56.28;101554.41;5154571;27;20393;-35
2022/10/29 09:48:27;;;;;;;;;;;;;;;21.36;56.41;101555.53;5164633;27;20444;-35
2022/10/29 09:50:56;;;;;;;;;;;;;;;21.36;56.27;101552.75;5161676;27;19962;-35
2022/10/29 09:53:22;;;;;;;;;;;;;;;21.35;56.31;101551.94;5163843;27;20433;-34
2022/10/29 09:55:52;;;;;;;;;;;;;;;21.36;56.32;101550.81;5160870;27;19923;-35
2022/10/29 09:58:20;;;;;;;;;;;;;;;21.36;56.22;101552.75;5143692;27;20385;-35
2022/10/29 10:00:45;;;;;;;;;;;;;;;21.36;56.16;101553.59;5158773;27;19974;-35
2022/10/29 10:03:29;;;;;;;;;;;;;;;21.36;56.26;101553.59;5163116;27;19938;-35
2022/10/29 10:06:09;;;;;;;;;;;;;;;21.36;56.18;101553.59;5159208;27;20038;-35
2022/10/29 10:08:55;;;;;;;;;;;;;;;21.35;56.31;101551.94;5144011;27;19966;-35
2022/10/29 10:11:20;;;;;;;;;;;;;;;21.36;56.25;101547.22;5142568;27;20020;-34
2022/10/29 10:13:55;;;;;;;;;;;;;;;21.36;56.26;101544.44;5165690;27;19926;-34
2022/10/29 10:16:22;;;;;;;;;;;;;;;21.36;56.41;101544.44;5135488;27;20010;-35
2022/10/29 10:18:47;;;;;;;;;;;;;;;21.36;56.27;101536.13;5153161;27;19989;-35
2022/10/29 10:21:22;;;;;;;;;;;;;;;21.36;56.25;101548.06;5147428;27;20278;-35
2022/10/29 10:23:50;;;;;;;;;;;;;;;21.36;56.33;101553.59;5132810;27;19947;-35
2022/10/29 10:26:38;;;;;;;;;;;;;;;21.36;56.20;101555.53;5128139;27;19966;-35
2022/10/29 10:29:07;;;;;;;;;;;;;;;21.36;56.34;101544.44;5137306;27;19995;-34
2022/10/29 10:31:33;;;;;;;;;;;;;;;21.36;56.29;101536.13;5132216;27;20068;-35
2022/10/29 10:33:58;;;;;;;;;;;;;;;21.36;56.29;101533.38;5154743;27;19931;-34
2022/10/29 10:36:24;;;;;;;;;;;;;;;21.36;56.25;101530.59;5145405;27;19927;-35
2022/10/29 10:38:57;;;;;;;;;;;;;;;21.36;56.30;101522.28;5133112;27;20014;-35
2022/10/29 10:41:25;;;;;;;;;;;;;;;21.35;56.22;101515.09;5149170;27;20283;-35
2022/10/29 10:43:51;;;;;;;;;;;;;;;21.36;56.28;101525.88;5148325;27;19923;-35
2022/10/29 10:46:24;;;;;;;;;;;;;;;21.36;56.09;101533.38;5126330;27;19934;-35
2022/10/29 10:49:06;;;;;;;;;;;;;;;21.35;56.18;101524.22;5149789;27;19938;-35
2022/10/29 10:51:32;;;;;;;;;;;;;;;21.35;56.23;101521.47;5128294;27;19923;-34
2022/10/29 10:53:58;;;;;;;;;;;;;;;21.35;56.26;101526.19;5146137;27;20010;-37
2022/10/29 10:56:23;;;;;;;;;;;;;;;21.36;56.22;101536.13;5143490;27;19939;-37
2022/10/29 10:59:06;;;;;;;;;;;;;;;21.35;56.21;101524.22;5139896;27;19931;-37
2022/10/29 11:01:35;;;;;;;;;;;;;;;21.36;56.21;101522.28;5131980;27;19969;-37
2022/10/29 11:04:20;;;;;;;;;;;;;;;21.36;56.30;101516.75;5110180;28;19924;-37
2022/10/29 11:06:47;;;;;;;;;;;;;;;21.36;56.16;101519.53;5113002;27;19990;-37
2022/10/29 11:09:33;;;;;;;;;;;;;;;21.36;56.18;101523.13;5132606;27;20006;-37
2022/10/29 11:12:00;;;;;;;;;;;;;;;21.35;56.22;101515.91;5120507;27;20274;-37
2022/10/29 11:14:27;;;;;;;;;;;;;;;21.35;56.18;101515.91;5125758;27;20358;-37
2022/10/29 11:16:54;;;;;;;;;;;;;;;21.35;56.25;101507.59;5138872;27;19978;-37
2022/10/29 11:19:25;;;;;;;;;;;;;;;21.35;56.18;101499.28;5133991;27;20018;-37
2022/10/29 11:21:56;;;;;;;;;;;;;;;21.35;56.24;101504.84;5134600;27;20022;-37
2022/10/29 11:24:32;;;;;;;;;;;;;;;21.35;56.40;101506.78;5132233;27;19968;-37
2022/10/29 11:27:02;;;;;;;;;;;;;;;21.35;56.25;101501.25;5140149;27;19973;-37
2022/10/29 11:29:30;;;;;;;;;;;;;;;21.35;56.25;101513.16;5140694;27;19977;-37
2022/10/29 11:31:58;;;;;;;;;;;;;;;21.36;56.47;101512.03;5130342;27;20014;-37
2022/10/29 11:34:25;;;;;;;;;;;;;;;21.36;56.18;101509.25;5130159;27;19974;-36
2022/10/29 11:36:54;;;;;;;;;;;;;;;21.35;56.17;101507.59;5128113;27;19966;-38
2022/10/29 11:39:29;;;;;;;;;;;;;;;21.35;56.24;101510.38;5134408;27;20391;-37
2022/10/29 11:41:57;;;;;;;;;;;;;;;21.34;56.49;101505.97;5133453;27;19970;-37
2022/10/29 11:44:22;;;;;;;;;;;;;;;21.35;56.23;101504.84;5113761;27;19973;-37
2022/10/29 11:47:08;;;;;;;;;;;;;;;21.35;56.23;101499.28;5136352;27;20313;-38
2022/10/29 11:49:39;;;;;;;;;;;;;;;21.35;55.97;101495.69;5118996;27;19967;-37
2022/10/29 11:52:09;;;;;;;;;;;;;;;21.36;56.29;101494.59;5131269;27;20031;-37
2022/10/29 11:54:44;;;;;;;;;;;;;;;21.34;56.22;101481.03;5134056;27;20390;-37
2022/10/29 11:57:15;;;;;;;;;;;;;;;21.35;56.21;101485.44;5132262;27;19968;-37
2022/10/29 12:00:00;;;;;;;;;;;;;;;21.35;56.37;101479.91;5115631;27;20077;-37
2022/10/29 12:02:46;;;;;;;;;;;;;;;21.35;56.31;101468.00;5121334;27;20018;-37
2022/10/29 12:05:14;;;;;;;;;;;;;;;21.34;56.27;101469.94;5117029;27;20375;-38
2022/10/29 12:07:46;;;;;;;;;;;;;;;21.35;56.27;101460.50;5130160;27;20353;-37
2022/10/29 12:10:31;;;;;;;;;;;;;;;21.36;56.27;101464.09;5132785;27;19985;-37
2022/10/29 12:13:00;;;;;;;;;;;;;;;21.35;56.22;101454.16;5114133;28;19951;-37
2022/10/29 12:15:26;;;;;;;;;;;;;;;21.35;56.21;101468.00;5118562;27;19973;-37
2022/10/29 12:18:11;;;;;;;;;;;;;;;21.35;56.21;101470.75;5135196;27;19974;-37
2022/10/29 12:20:49;;;;;;;;;;;;;;;21.34;56.27;101461.63;5120360;27;19931;-38
2022/10/29 12:23:24;;;;;;;;;;;;;;;21.35;56.13;101452.19;5112606;27;19971;-37
2022/10/29 12:25:54;;;;;;;;;;;;;;;21.35;56.16;101460.50;5136916;27;20228;-37
2022/10/29 12:28:22;;;;;;;;;;;;;;;21.35;56.20;101460.50;5115185;27;19973;-38
2022/10/29 12:30:53;;;;;;;;;;;;;;;21.34;56.13;101445.00;5133354;27;19974;-37
2022/10/29 12:33:38;;;;;;;;;;;;;;;21.35;56.24;101449.44;5133119;27;19963;-37
2022/10/29 12:36:10;;;;;;;;;;;;;;;21.35;56.32;101448.59;5117325;27;20187;-37
2022/10/29 12:38:38;;;;;;;;;;;;;;;21.35;56.15;101443.06;5129908;27;20048;-37
2022/10/29 12:41:05;;;;;;;;;;;;;;;21.34;56.25;101439.47;5112514;27;20668;-38
2022/10/29 12:43:32;;;;;;;;;;;;;;;21.35;56.21;101443.06;5118991;27;20030;-37
2022/10/29 12:46:07;;;;;;;;;;;;;;;21.34;56.18;101436.69;5129044;27;20018;-38
2022/10/29 12:48:48;;;;;;;;;;;;;;;21.33;56.34;101429.50;5115614;27;19924;-37
2022/10/29 12:51:17;;;;;;;;;;;;;;;21.35;56.18;101430.03;5114434;28;19923;-37